Time;durP1;ratioP1;P1;durP2;ratioP2;P2;SDS_P1;SDS_P2;PMS_P1;PMS_P2;Temp;Humidity;BMP_temperature;BMP_pressure;BME280_temperature;BME280_humidity;BME280_pressure;Samples;Min_cycle;Max_cycle;Signal;HPM_P1;HPM_P2
2023/08/18 00:00:56;;;;;;;6.95;4.80;;;;;;;20.07;100.00;98459.44;2591575;28;20072;-88
2023/08/18 00:02:24;;;;;;;6.78;4.75;;;;;;;20.08;100.00;98458.47;2584152;28;20572;-88
2023/08/18 00:03:40;;;;;;;5.95;5.00;;;;;;;19.86;100.00;98466.06;2602872;28;20045;-88
2023/08/18 00:04:55;;;;;;;6.05;4.88;;;;;;;19.71;100.00;98467.06;2597386;28;20070;-88
2023/08/18 00:06:11;;;;;;;7.68;5.40;;;;;;;19.62;100.00;98468.50;2592438;28;20556;-88
2023/08/18 00:07:27;;;;;;;7.07;5.40;;;;;;;19.46;100.00;98464.16;2602034;28;20045;-88
2023/08/18 00:08:43;;;;;;;7.63;5.60;;;;;;;19.64;100.00;98463.09;2598931;28;20053;-88
2023/08/18 00:09:59;;;;;;;7.88;5.65;;;;;;;19.82;100.00;98458.38;2592448;28;20494;-88
2023/08/18 00:11:14;;;;;;;9.88;5.68;;;;;;;19.81;100.00;98462.81;2600042;28;20049;-87
2023/08/18 00:12:30;;;;;;;6.88;5.57;;;;;;;19.93;100.00;98460.34;2600904;28;20121;-88
2023/08/18 00:13:46;;;;;;;6.30;5.20;;;;;;;19.68;100.00;98453.97;2592218;28;20042;-89
2023/08/18 00:15:01;;;;;;;8.23;5.57;;;;;;;19.84;100.00;98452.03;2581819;28;20255;-88
2023/08/18 00:16:17;;;;;;;6.20;4.88;;;;;;;19.66;100.00;98458.53;2586051;28;20521;-88
2023/08/18 00:17:33;;;;;;;6.10;4.88;;;;;;;19.42;100.00;98459.19;2602846;28;20096;-88
2023/08/18 00:18:48;;;;;;;7.38;5.30;;;;;;;19.55;100.00;98460.06;2587338;28;20071;-89
2023/08/18 00:20:04;;;;;;;7.82;5.50;;;;;;;19.50;100.00;98458.69;2581800;28;20042;-88
2023/08/18 00:21:20;;;;;;;6.40;5.00;;;;;;;19.46;100.00;98458.84;2569939;28;20102;-89
2023/08/18 00:22:36;;;;;;;6.70;5.40;;;;;;;19.67;100.00;98455.78;2568827;28;20510;-89
2023/08/18 00:23:51;;;;;;;6.53;5.10;;;;;;;19.74;100.00;98456.22;2571697;28;20050;-88
2023/08/18 00:25:07;;;;;;;7.82;5.50;;;;;;;19.75;100.00;98455.28;2570361;28;20985;-89
2023/08/18 00:26:23;;;;;;;9.05;5.00;;;;;;;19.83;100.00;98458.25;2580608;28;20045;-91
2023/08/18 00:27:39;;;;;;;5.97;4.93;;;;;;;19.80;100.00;98457.63;2592188;28;20516;-88
2023/08/18 00:28:54;;;;;;;8.77;5.30;;;;;;;19.81;100.00;98454.84;2591862;28;20076;-89
2023/08/18 00:30:10;;;;;;;5.15;4.65;;;;;;;19.83;100.00;98458.25;2591897;28;20520;-89
2023/08/18 00:31:26;;;;;;;5.72;5.10;;;;;;;19.60;100.00;98457.97;2587890;28;20498;-88
2023/08/18 00:32:42;;;;;;;6.22;5.30;;;;;;;19.59;100.00;98453.63;2590501;28;20045;-89
2023/08/18 00:33:57;;;;;;;8.88;5.47;;;;;;;19.59;100.00;98455.41;2591680;28;20050;-89
2023/08/18 00:35:13;;;;;;;6.43;5.38;;;;;;;19.54;100.00;98454.88;2577730;28;20058;-89
2023/08/18 00:36:30;;;;;;;5.72;5.03;;;;;;;19.62;100.00;98450.75;2584137;28;20136;-90
2023/08/18 00:37:45;;;;;;;6.10;4.90;;;;;;;19.72;100.00;98456.31;2594060;28;20042;-89
2023/08/18 00:39:04;;;;;;;6.53;5.22;;;;;;;19.60;100.00;98451.81;2578583;28;20534;-89
2023/08/18 00:40:22;;;;;;;7.15;5.35;;;;;;;19.61;100.00;98451.72;2571936;28;20054;-89
2023/08/18 00:41:38;;;;;;;5.68;4.82;;;;;;;19.61;100.00;98459.69;2583590;28;20049;-89
2023/08/18 00:42:53;;;;;;;5.75;5.10;;;;;;;19.51;100.00;98455.91;2592871;28;20041;-89
2023/08/18 00:44:09;;;;;;;7.65;5.22;;;;;;;19.63;100.00;98454.28;2592475;28;20075;-89
2023/08/18 00:45:26;;;;;;;7.25;5.03;;;;;;;19.53;100.00;98447.88;2591150;28;20071;-89
2023/08/18 00:46:43;;;;;;;6.05;4.88;;;;;;;19.71;100.00;98448.47;2592186;28;20052;-90
2023/08/18 00:47:58;;;;;;;7.13;5.15;;;;;;;19.56;100.00;98442.34;2590420;28;20081;-89
2023/08/18 00:49:17;;;;;;;6.88;5.40;;;;;;;19.68;100.00;98446.00;2577287;28;20450;-89
2023/08/18 00:50:33;;;;;;;7.05;5.55;;;;;;;19.82;100.00;98445.94;2578568;28;20046;-88
2023/08/18 00:51:49;;;;;;;7.93;5.32;;;;;;;19.77;100.00;98434.78;2577440;28;20050;-88
2023/08/18 00:53:05;;;;;;;8.05;6.03;;;;;;;19.85;100.00;98440.44;2586211;28;20049;-88
2023/08/18 00:54:20;;;;;;;6.70;5.10;;;;;;;19.89;100.00;98433.97;2601865;28;20045;-88
2023/08/18 00:55:36;;;;;;;5.43;4.80;;;;;;;19.86;100.00;98436.81;2592207;28;20045;-88
2023/08/18 00:56:53;;;;;;;6.80;4.65;;;;;;;19.89;100.00;98427.78;2596622;28;20049;-88
2023/08/18 00:58:10;;;;;;;6.35;4.90;;;;;;;19.70;100.00;98434.31;2597897;28;20517;-88
2023/08/18 00:59:25;;;;;;;5.97;5.10;;;;;;;19.66;100.00;98427.53;2581233;28;20070;-88
2023/08/18 01:00:41;;;;;;;5.75;4.90;;;;;;;19.57;100.00;98423.66;2585514;28;20042;-88
2023/08/18 01:02:02;;;;;;;7.28;5.25;;;;;;;19.68;100.00;98430.06;2592149;28;20523;-88
2023/08/18 01:03:18;;;;;;;5.47;4.78;;;;;;;19.71;100.00;98424.56;2592040;28;20406;-90
2023/08/18 01:04:34;;;;;;;8.30;5.35;;;;;;;19.71;100.00;98421.91;2589750;28;20053;-88
2023/08/18 01:05:49;;;;;;;5.10;4.60;;;;;;;19.54;100.00;98423.00;2592145;28;20417;-88
2023/08/18 01:07:06;;;;;;;5.65;4.78;;;;;;;19.56;100.00;98426.41;2592017;28;20132;-88
2023/08/18 01:08:22;;;;;;;6.10;4.90;;;;;;;19.53;100.00;98416.00;2581192;28;20053;-88
2023/08/18 01:09:37;;;;;;;9.57;5.28;;;;;;;19.40;100.00;98422.09;2585497;28;20088;-88
2023/08/18 01:11:09;;;;;;;5.25;4.75;;;;;;;19.14;100.00;98421.13;2591904;28;20053;-88
2023/08/18 01:12:41;;;;;;;7.50;5.80;;;;;;;19.13;100.00;98414.97;2590776;28;20386;-88
2023/08/18 01:14:11;;;;;;;5.20;4.50;;;;;;;18.99;100.00;98418.47;2584937;28;20046;-88
2023/08/18 01:15:38;;;;;;;5.28;4.78;;;;;;;18.77;100.00;98418.94;2581151;28;20077;-88
2023/08/18 01:17:05;;;;;;;6.60;5.00;;;;;;;18.78;100.00;98415.34;2586888;28;20050;-87
2023/08/18 01:18:22;;;;;;;7.47;5.45;;;;;;;18.80;100.00;98413.47;2592061;28;20041;-87
2023/08/18 01:19:38;;;;;;;7.00;5.40;;;;;;;18.72;100.00;98413.09;2591859;28;20046;-88
2023/08/18 01:20:53;;;;;;;7.32;5.50;;;;;;;18.75;100.00;98413.75;2591691;28;20402;-88
2023/08/18 01:22:12;;;;;;;7.80;5.32;;;;;;;18.84;100.00;98408.81;2591878;28;20561;-87
2023/08/18 01:23:38;;;;;;;6.45;5.22;;;;;;;18.67;100.00;98407.22;2589571;28;20042;-88
2023/08/18 01:25:01;;;;;;;7.22;5.85;;;;;;;18.68;100.00;98414.22;2571097;28;20471;-88
2023/08/18 01:26:17;;;;;;;8.80;6.30;;;;;;;18.45;100.00;98400.56;2570826;28;20046;-89
2023/08/18 01:27:33;;;;;;;6.40;5.22;;;;;;;18.64;100.00;98409.09;2575510;28;20105;-89
2023/08/18 01:28:48;;;;;;;6.93;5.43;;;;;;;18.82;100.00;98411.56;2585997;28;20041;-89
2023/08/18 01:30:05;;;;;;;7.40;5.45;;;;;;;18.63;100.00;98410.03;2591970;28;20198;-88
2023/08/18 01:31:27;;;;;;;5.97;5.38;;;;;;;18.69;100.00;98413.28;2589464;28;20512;-88
2023/08/18 01:32:50;;;;;;;7.38;5.68;;;;;;;18.57;100.00;98421.03;2591945;28;20049;-89
2023/08/18 01:34:09;;;;;;;7.00;5.82;;;;;;;18.58;100.00;98414.78;2591035;28;20053;-89
2023/08/18 01:35:28;;;;;;;6.45;5.35;;;;;;;18.64;100.00;98414.41;2579509;28;20057;-88
2023/08/18 01:36:45;;;;;;;6.95;5.82;;;;;;;18.78;100.00;98421.50;2583177;28;20162;-89
2023/08/18 01:38:03;;;;;;;8.23;5.38;;;;;;;18.87;100.00;98421.91;2591928;28;20054;-89
2023/08/18 01:39:20;;;;;;;7.25;5.20;;;;;;;18.88;100.00;98415.63;2591885;28;20413;-89
2023/08/18 01:40:37;;;;;;;7.38;5.22;;;;;;;18.83;100.00;98423.00;2593362;28;20582;-89
2023/08/18 01:41:53;;;;;;;6.45;5.05;;;;;;;18.88;100.00;98420.94;2593880;28;20069;-89
2023/08/18 01:43:09;;;;;;;6.88;5.63;;;;;;;18.81;100.00;98419.59;2590891;28;20048;-89
2023/08/18 01:44:25;;;;;;;6.10;5.15;;;;;;;18.81;100.00;98419.59;2593212;28;20050;-88
2023/08/18 01:45:40;;;;;;;7.75;5.47;;;;;;;18.84;100.00;98422.06;2593978;28;20049;-88
2023/08/18 01:46:56;;;;;;;7.40;5.32;;;;;;;18.73;100.00;98415.66;2590456;28;20045;-89
2023/08/18 01:48:12;;;;;;;5.75;4.97;;;;;;;18.69;100.00;98414.13;2583151;28;20054;-89
2023/08/18 01:49:27;;;;;;;7.22;5.40;;;;;;;18.73;100.00;98412.13;2587675;28;20049;-90
2023/08/18 01:50:43;;;;;;;7.90;5.38;;;;;;;18.77;100.00;98410.97;2583276;28;20557;-89
2023/08/18 01:52:11;;;;;;;5.32;4.80;;;;;;;18.82;100.00;98414.22;2587083;28;20405;-89
2023/08/18 01:53:32;;;;;;;7.32;5.63;;;;;;;18.85;100.00;98405.19;2584516;28;20054;-88
2023/08/18 01:54:50;;;;;;;6.18;5.10;;;;;;;18.81;100.00;98403.69;2584381;28;20062;-88
2023/08/18 01:56:06;;;;;;;7.07;5.03;;;;;;;18.72;100.00;98399.81;2583832;28;20050;-88
2023/08/18 01:57:21;;;;;;;7.47;5.90;;;;;;;18.75;100.00;98402.28;2600836;28;20081;-88
2023/08/18 01:58:37;;;;;;;7.18;5.20;;;;;;;18.75;100.00;98403.16;2601093;28;20453;-87
2023/08/18 01:59:53;;;;;;;6.40;5.07;;;;;;;18.70;100.00;98404.38;2582852;28;20046;-88
2023/08/18 02:01:08;;;;;;;6.30;4.97;;;;;;;18.63;100.00;98399.44;2582702;28;20046;-88
2023/08/18 02:02:24;;;;;;;7.00;5.45;;;;;;;18.60;100.00;98396.16;2587225;28;20053;-88
2023/08/18 02:03:40;;;;;;;7.57;5.20;;;;;;;18.48;100.00;98398.59;2593754;28;20050;-88
2023/08/18 02:04:56;;;;;;;7.88;5.70;;;;;;;18.53;100.00;98397.44;2593821;28;20505;-88
2023/08/18 02:06:12;;;;;;;8.07;5.63;;;;;;;18.55;100.00;98401.72;2593708;28;20050;-88
2023/08/18 02:07:27;;;;;;;6.97;5.70;;;;;;;18.30;100.00;98395.25;2582985;28;20050;-88
2023/08/18 02:08:43;;;;;;;7.22;5.68;;;;;;;18.37;100.00;98394.88;2587182;28;20045;-88
2023/08/18 02:09:59;;;;;;;6.60;5.13;;;;;;;18.47;100.00;98401.34;2593669;28;20050;-88
2023/08/18 02:11:15;;;;;;;6.55;5.57;;;;;;;18.36;100.00;98396.69;2592850;28;20042;-87
2023/08/18 02:12:30;;;;;;;7.60;6.00;;;;;;;18.27;100.00;98395.47;2593393;28;20158;-88
2023/08/18 02:13:46;;;;;;;9.35;5.68;;;;;;;18.02;100.00;98409.28;2592310;28;20053;-89
2023/08/18 02:15:01;;;;;;;7.30;6.03;;;;;;;18.15;100.00;98406.78;2572918;28;20065;-89
2023/08/18 02:16:17;;;;;;;7.72;5.88;;;;;;;18.05;100.00;98404.69;2575071;28;20061;-88
2023/08/18 02:17:32;;;;;;;8.80;5.78;;;;;;;17.99;100.00;98399.72;2588371;28;20050;-88
2023/08/18 02:18:48;;;;;;;7.18;5.93;;;;;;;18.09;100.00;98404.50;2593723;28;20068;-89
2023/08/18 02:20:04;;;;;;;6.88;5.43;;;;;;;18.16;100.00;98396.13;2589501;28;20047;-89
2023/08/18 02:21:20;;;;;;;7.60;6.10;;;;;;;18.32;100.00;98397.84;2591784;28;20112;-89
2023/08/18 02:22:36;;;;;;;7.25;6.00;;;;;;;18.24;100.00;98397.44;2593494;28;20160;-89
2023/08/18 02:23:51;;;;;;;7.65;5.93;;;;;;;18.27;100.00;98394.59;2589308;28;20123;-89
2023/08/18 02:25:07;;;;;;;7.75;5.57;;;;;;;18.13;100.00;98398.09;2594471;28;20049;-90
2023/08/18 02:26:23;;;;;;;7.70;6.10;;;;;;;18.06;100.00;98397.59;2593153;28;20060;-89
2023/08/18 02:27:38;;;;;;;7.70;6.28;;;;;;;17.97;100.00;98400.75;2593858;28;20393;-89
2023/08/18 02:28:54;;;;;;;7.18;5.72;;;;;;;17.90;100.00;98400.25;2579135;28;20061;-89
2023/08/18 02:30:10;;;;;;;9.43;6.65;;;;;;;17.83;100.00;98410.38;2577657;28;20057;-89
2023/08/18 02:31:25;;;;;;;7.88;5.88;;;;;;;17.76;100.00;98409.88;2582051;28;20081;-90
2023/08/18 02:32:41;;;;;;;9.05;6.35;;;;;;;17.84;100.00;98404.13;2595090;28;20050;-88
2023/08/18 02:33:57;;;;;;;7.65;6.20;;;;;;;17.93;100.00;98405.38;2593932;28;20050;-90
2023/08/18 02:35:13;;;;;;;7.78;5.93;;;;;;;17.98;100.00;98407.75;2595412;28;20057;-89
2023/08/18 02:36:28;;;;;;;7.32;6.25;;;;;;;17.93;100.00;98403.59;2578953;28;20042;-88
2023/08/18 02:37:44;;;;;;;9.02;6.43;;;;;;;18.08;100.00;98408.97;2583929;28;20395;-89
2023/08/18 02:39:00;;;;;;;7.82;6.28;;;;;;;18.08;100.00;98408.97;2595381;28;20169;-89
2023/08/18 02:40:16;;;;;;;8.40;6.50;;;;;;;18.01;100.00;98407.56;2592673;28;20050;-89
2023/08/18 02:41:31;;;;;;;8.13;5.82;;;;;;;17.89;100.00;98406.50;2593628;28;20053;-89
2023/08/18 02:42:47;;;;;;;8.50;6.18;;;;;;;17.91;100.00;98413.44;2592752;28;20046;-90
2023/08/18 02:44:03;;;;;;;7.18;5.93;;;;;;;18.01;100.00;98410.22;2579039;28;20130;-90
2023/08/18 02:45:18;;;;;;;8.50;5.63;;;;;;;17.87;100.00;98419.81;2583515;28;20178;-89
2023/08/18 02:46:34;;;;;;;7.68;5.65;;;;;;;17.85;100.00;98411.13;2591782;28;20172;-89
2023/08/18 02:47:49;;;;;;;7.03;5.40;;;;;;;17.61;100.00;98424.00;2592475;28;20034;-89
2023/08/18 02:49:05;;;;;;;10.10;5.47;;;;;;;17.72;100.00;98421.59;2593969;28;20061;-89
2023/08/18 02:50:21;;;;;;;7.25;5.40;;;;;;;17.64;100.00;98418.53;2579237;28;20174;-91
2023/08/18 02:51:36;;;;;;;6.82;5.57;;;;;;;17.73;100.00;98417.13;2584524;28;20060;-91
2023/08/18 02:52:52;;;;;;;6.80;5.78;;;;;;;17.82;100.00;98424.56;2581013;28;20106;-88
2023/08/18 02:54:08;;;;;;;6.38;5.50;;;;;;;17.82;100.00;98416.59;2576597;28;20042;-88
2023/08/18 02:55:23;;;;;;;7.97;5.55;;;;;;;17.88;100.00;98421.56;2587109;28;20129;-88
2023/08/18 02:56:39;;;;;;;7.68;6.20;;;;;;;17.96;100.00;98422.88;2593517;28;20054;-88
2023/08/18 02:57:54;;;;;;;8.20;6.30;;;;;;;17.96;100.00;98421.13;2593489;28;20113;-88
2023/08/18 02:59:10;;;;;;;7.53;5.97;;;;;;;18.02;100.00;98423.41;2593425;28;20057;-88
2023/08/18 03:00:26;;;;;;;8.35;6.30;;;;;;;18.01;100.00;98423.47;2593392;28;20054;-87
2023/08/18 03:01:42;;;;;;;6.30;5.47;;;;;;;18.11;100.00;98429.13;2582380;28;20465;-88
2023/08/18 03:03:00;;;;;;;8.82;6.28;;;;;;;18.13;100.00;98425.41;2575865;28;20065;-87
2023/08/18 03:04:17;;;;;;;7.47;5.97;;;;;;;18.16;100.00;98424.41;2586808;28;20065;-88
2023/08/18 03:05:35;;;;;;;8.70;6.05;;;;;;;18.16;100.00;98424.41;2592853;28;20665;-88
2023/08/18 03:06:51;;;;;;;6.85;6.03;;;;;;;18.19;100.00;98430.38;2582125;28;20101;-87
2023/08/18 03:08:06;;;;;;;9.02;6.47;;;;;;;18.11;100.00;98429.97;2586498;28;20046;-88
2023/08/18 03:09:22;;;;;;;8.15;5.93;;;;;;;18.06;100.00;98432.03;2582089;28;20050;-88
2023/08/18 03:10:38;;;;;;;8.30;6.15;;;;;;;17.97;100.00;98429.91;2576023;28;20046;-88
2023/08/18 03:11:53;;;;;;;9.45;6.88;;;;;;;17.77;100.00;98430.09;2585433;28;20076;-89
2023/08/18 03:13:09;;;;;;;7.82;5.85;;;;;;;17.87;100.00;98432.22;2581426;28;20067;-89
2023/08/18 03:14:25;;;;;;;7.47;6.05;;;;;;;17.95;100.00;98424.69;2581545;28;20569;-88
2023/08/18 03:15:41;;;;;;;9.02;5.53;;;;;;;18.06;100.00;98429.41;2586519;28;20049;-89
2023/08/18 03:16:56;;;;;;;8.13;5.80;;;;;;;18.02;100.00;98428.72;2592977;28;20513;-89
2023/08/18 03:18:12;;;;;;;7.43;6.35;;;;;;;18.06;100.00;98432.03;2591918;28;20100;-90
2023/08/18 03:19:27;;;;;;;9.45;6.63;;;;;;;17.98;100.00;98436.91;2578603;28;20510;-90
2023/08/18 03:20:45;;;;;;;7.53;6.20;;;;;;;18.02;100.00;98433.13;2583792;28;20053;-90
2023/08/18 03:22:01;;;;;;;6.82;5.90;;;;;;;17.89;100.00;98433.00;2591687;28;20041;-90
2023/08/18 03:23:18;;;;;;;10.48;6.07;;;;;;;17.90;100.00;98437.34;2593336;28;20513;-90
2023/08/18 03:24:34;;;;;;;9.35;6.22;;;;;;;17.91;100.00;98431.09;2592220;28;20053;-90
2023/08/18 03:25:49;;;;;;;7.22;6.45;;;;;;;17.80;100.00;98431.72;2592510;28;20045;-89
2023/08/18 03:27:05;;;;;;;9.43;6.65;;;;;;;17.75;100.00;98436.47;2592487;28;20096;-89
2023/08/18 03:28:21;;;;;;;8.93;6.78;;;;;;;17.76;100.00;98435.50;2592226;28;20131;-88
2023/08/18 03:29:36;;;;;;;8.95;6.45;;;;;;;17.72;100.00;98442.78;2592483;28;20046;-88
2023/08/18 03:30:52;;;;;;;9.63;6.57;;;;;;;17.82;100.00;98440.44;2592861;28;20053;-89
2023/08/18 03:32:07;;;;;;;11.05;5.97;;;;;;;17.97;100.00;98440.50;2581873;28;20097;-89
2023/08/18 03:33:23;;;;;;;9.55;6.38;;;;;;;17.98;100.00;98443.06;2586485;28;20053;-89
2023/08/18 03:34:39;;;;;;;10.40;5.95;;;;;;;18.01;100.00;98448.16;2593001;28;20458;-88
2023/08/18 03:35:55;;;;;;;11.13;7.05;;;;;;;17.91;100.00;98447.88;2592872;28;20061;-88
2023/08/18 03:37:10;;;;;;;9.10;6.38;;;;;;;17.90;100.00;98448.81;2592793;28;20042;-88
2023/08/18 03:38:26;;;;;;;10.18;6.57;;;;;;;18.02;100.00;98454.31;2592756;28;20181;-88
2023/08/18 03:39:42;;;;;;;8.55;6.60;;;;;;;18.02;100.00;98454.31;2592814;28;20042;-88
2023/08/18 03:41:05;;;;;;;10.80;7.20;;;;;;;18.07;100.00;98455.78;2592803;28;20050;-88
2023/08/18 03:42:21;;;;;;;9.65;6.97;;;;;;;18.09;100.00;98458.34;2592704;28;20486;-88
2023/08/18 03:43:37;;;;;;;8.70;6.57;;;;;;;18.14;100.00;98458.09;2581886;28;20042;-88
2023/08/18 03:44:53;;;;;;;10.63;6.63;;;;;;;18.17;100.00;98456.13;2586285;28;20048;-88
2023/08/18 03:46:20;;;;;;;11.35;6.82;;;;;;;18.24;100.00;98455.72;2592736;28;20042;-88
2023/08/18 03:47:36;;;;;;;9.00;6.70;;;;;;;18.24;100.00;98461.91;2592687;28;20485;-88
2023/08/18 03:48:52;;;;;;;7.93;6.35;;;;;;;18.26;100.00;98456.50;2592732;28;20045;-89
2023/08/18 03:50:08;;;;;;;11.07;6.57;;;;;;;18.14;100.00;98458.91;2592536;28;20049;-88
2023/08/18 03:51:23;;;;;;;7.28;5.93;;;;;;;17.92;100.00;98461.94;2592449;28;20414;-88
2023/08/18 03:52:39;;;;;;;9.93;6.55;;;;;;;17.63;100.00;98461.81;2592686;28;20046;-88
2023/08/18 03:53:56;;;;;;;10.85;6.90;;;;;;;17.61;100.00;98464.56;2592544;28;20556;-88
2023/08/18 03:55:11;;;;;;;12.63;6.93;;;;;;;17.81;100.00;98467.00;2592512;28;20050;-89
2023/08/18 03:56:27;;;;;;;8.73;6.53;;;;;;;17.96;100.00;98466.13;2592644;28;20049;-89
2023/08/18 03:57:43;;;;;;;11.20;7.38;;;;;;;18.07;100.00;98474.31;2592634;28;20049;-88
2023/08/18 03:58:58;;;;;;;9.13;6.13;;;;;;;18.00;100.00;98477.38;2592553;28;20097;-88
2023/08/18 04:00:14;;;;;;;9.02;6.60;;;;;;;17.83;100.00;98473.91;2591817;28;20058;-88
2023/08/18 04:01:31;;;;;;;12.63;7.15;;;;;;;17.88;100.00;98478.97;2592051;28;20066;-88
2023/08/18 04:02:47;;;;;;;10.02;7.35;;;;;;;18.03;100.00;98485.22;2592243;28;20049;-89
2023/08/18 04:04:04;;;;;;;12.13;6.95;;;;;;;18.10;100.00;98481.25;2592253;28;20576;-88
2023/08/18 04:05:19;;;;;;;9.60;6.40;;;;;;;18.20;100.00;98484.19;2592454;28;20045;-89
2023/08/18 04:06:35;;;;;;;9.05;6.60;;;;;;;17.99;100.00;98475.69;2581557;28;20046;-88
2023/08/18 04:07:51;;;;;;;9.48;7.13;;;;;;;17.71;100.00;98475.50;2585978;28;20038;-89
2023/08/18 04:09:13;;;;;;;9.85;6.15;;;;;;;17.79;100.00;98477.69;2592503;28;20394;-88
2023/08/18 04:10:29;;;;;;;;;;;;;;;17.73;100.00;98473.59;2593123;28;20472;-89
2023/08/18 04:11:45;;;;;;;7.63;6.18;;;;;;;17.77;100.00;98475.13;2592439;28;19921;-89
2023/08/18 04:13:01;;;;;;;10.20;6.72;;;;;;;17.67;100.00;98481.03;2577768;28;20050;-89
2023/08/18 04:14:18;;;;;;;9.00;6.82;;;;;;;17.70;100.00;98483.50;2583696;28;20053;-90
2023/08/18 04:15:33;;;;;;;10.73;7.40;;;;;;;17.77;100.00;98483.06;2592660;28;20096;-90
2023/08/18 04:16:50;;;;;;;8.30;6.60;;;;;;;17.96;100.00;98481.16;2593208;28;20099;-90
2023/08/18 04:18:06;;;;;;;8.85;7.32;;;;;;;17.99;100.00;98480.97;2592507;28;20053;-90
2023/08/18 04:19:21;;;;;;;10.70;7.72;;;;;;;18.13;100.00;98481.06;2593743;28;20056;-90
2023/08/18 04:20:37;;;;;;;11.45;6.97;;;;;;;18.18;100.00;98479.00;2593182;28;20413;-89
2023/08/18 04:21:52;;;;;;;8.63;6.88;;;;;;;18.15;100.00;98484.47;2601510;28;20103;-89
2023/08/18 04:23:08;;;;;;;9.43;6.78;;;;;;;18.12;100.00;98479.34;2591827;28;20053;-89
2023/08/18 04:24:24;;;;;;;11.23;8.40;;;;;;;18.11;100.00;98484.75;2596021;28;20050;-88
2023/08/18 04:25:43;;;;;;;10.50;7.47;;;;;;;18.33;100.00;98485.19;2591538;28;20107;-89
2023/08/18 04:26:59;;;;;;;10.65;7.57;;;;;;;18.40;100.00;98485.69;2596650;28;20045;-89
2023/08/18 04:28:15;;;;;;;9.40;7.57;;;;;;;18.43;100.00;98482.00;2591613;28;20117;-88
2023/08/18 04:29:30;;;;;;;9.65;6.95;;;;;;;18.52;100.00;98480.59;2596012;28;20091;-89
2023/08/18 04:30:46;;;;;;;14.13;7.28;;;;;;;18.52;100.00;98486.75;2602680;28;20042;-89
2023/08/18 04:32:04;;;;;;;9.43;6.80;;;;;;;18.55;100.00;98488.34;2602495;28;20076;-89
2023/08/18 04:33:20;;;;;;;9.25;7.07;;;;;;;18.40;100.00;98495.44;2602570;28;20452;-89
2023/08/18 04:34:36;;;;;;;9.02;7.10;;;;;;;18.44;100.00;98496.97;2602672;28;20046;-89
2023/08/18 04:35:51;;;;;;;10.93;7.25;;;;;;;18.46;100.00;98490.63;2602600;28;20038;-89
2023/08/18 04:37:07;;;;;;;7.57;6.68;;;;;;;18.46;100.00;98490.63;2591571;28;20042;-89
2023/08/18 04:38:23;;;;;;;11.40;7.15;;;;;;;18.53;100.00;98496.41;2590090;28;20046;-89
2023/08/18 04:39:38;;;;;;;11.73;7.30;;;;;;;18.66;100.00;98490.38;2592349;28;20046;-90
2023/08/18 04:41:01;;;;;;;8.88;7.28;;;;;;;18.69;100.00;98495.50;2592261;28;20046;-88
2023/08/18 04:42:16;;;;;;;8.50;7.07;;;;;;;18.63;100.00;98494.91;2592242;28;20057;-88
2023/08/18 04:43:33;;;;;;;10.55;7.20;;;;;;;18.76;100.00;98495.03;2592153;28;20049;-88
2023/08/18 04:44:50;;;;;;;7.75;6.68;;;;;;;18.88;100.00;98498.72;2592500;28;20046;-89
2023/08/18 04:46:06;;;;;;;11.68;7.70;;;;;;;18.87;100.00;98497.00;2594173;28;20041;-90
2023/08/18 04:47:21;;;;;;;9.25;6.63;;;;;;;18.83;100.00;98487.53;2594677;28;20061;-90
2023/08/18 04:48:37;;;;;;;9.73;7.10;;;;;;;18.96;100.00;98492.09;2589720;28;20132;-90
2023/08/18 04:49:53;;;;;;;8.57;7.57;;;;;;;18.98;100.00;98491.03;2594056;28;20053;-90
2023/08/18 04:51:08;;;;;;;11.43;7.18;;;;;;;19.02;100.00;98495.25;2590784;28;20049;-88
2023/08/18 04:52:24;;;;;;;10.27;7.18;;;;;;;19.07;100.00;98494.09;2591004;28;20045;-88
2023/08/18 04:53:39;;;;;;;10.25;7.60;;;;;;;18.94;100.00;98494.00;2592282;28;20054;-88
2023/08/18 04:54:55;;;;;;;8.98;6.97;;;;;;;18.83;100.00;98503.47;2587910;28;20525;-89
2023/08/18 04:56:10;;;;;;;8.35;7.40;;;;;;;18.84;100.00;98499.00;2590627;28;20418;-86
2023/08/18 04:57:26;;;;;;;8.77;7.13;;;;;;;18.88;100.00;98504.00;2591763;28;20033;-86
2023/08/18 04:58:42;;;;;;;8.88;7.03;;;;;;;18.75;100.00;98505.72;2591555;28;20069;-88
2023/08/18 04:59:57;;;;;;;11.27;7.15;;;;;;;18.90;100.00;98514.53;2591453;28;20073;-86
2023/08/18 05:01:13;;;;;;;10.13;7.38;;;;;;;18.82;100.00;98508.84;2591536;28;20048;-86
2023/08/18 05:02:28;;;;;;;11.02;7.47;;;;;;;18.99;100.00;98505.16;2591493;28;20053;-86
2023/08/18 05:03:44;;;;;;;8.75;7.10;;;;;;;18.89;100.00;98512.84;2591507;28;20038;-87
2023/08/18 05:05:00;;;;;;;10.98;6.85;;;;;;;18.98;100.00;98516.72;2591462;28;20054;-86
2023/08/18 05:06:15;;;;;;;9.77;7.20;;;;;;;19.02;100.00;98519.13;2591560;28;20037;-86
2023/08/18 05:07:31;;;;;;;11.55;7.45;;;;;;;18.93;100.00;98509.03;2591529;28;20041;-86
2023/08/18 05:08:48;;;;;;;10.00;7.35;;;;;;;19.08;100.00;98509.94;2591668;28;20048;-86
2023/08/18 05:10:04;;;;;;;8.82;7.22;;;;;;;19.06;100.00;98509.16;2591586;28;20046;-87
2023/08/18 05:11:19;;;;;;;10.00;7.72;;;;;;;19.21;100.00;98507.34;2591480;28;20089;-86
2023/08/18 05:12:35;;;;;;;8.82;7.35;;;;;;;19.30;100.00;98508.59;2591422;28;20046;-86
2023/08/18 05:13:51;;;;;;;8.45;6.85;;;;;;;19.32;100.00;98507.53;2591439;28;20513;-86
2023/08/18 05:15:07;;;;;;;8.98;7.35;;;;;;;19.26;100.00;98507.91;2593969;28;20072;-86
2023/08/18 05:16:23;;;;;;;8.07;6.93;;;;;;;19.36;100.00;98504.69;2594186;28;20062;-86
2023/08/18 05:17:39;;;;;;;10.38;7.07;;;;;;;19.37;100.00;98512.56;2594444;28;20478;-87
2023/08/18 05:18:54;;;;;;;9.93;7.63;;;;;;;19.34;100.00;98508.28;2594944;28;20046;-87
2023/08/18 05:20:11;;;;;;;9.73;7.53;;;;;;;19.50;100.00;98502.00;2594894;28;20056;-86
2023/08/18 05:21:26;;;;;;;10.30;7.75;;;;;;;19.37;100.00;98506.41;2580880;28;20046;-87
2023/08/18 05:22:42;;;;;;;10.55;7.78;;;;;;;19.62;100.00;98505.66;2574649;28;20501;-87
2023/08/18 05:23:58;;;;;;;10.00;8.27;;;;;;;19.60;100.00;98505.78;2581315;28;20045;-87
2023/08/18 05:25:13;;;;;;;8.73;7.47;;;;;;;19.55;100.00;98496.41;2574226;28;21038;-87
2023/08/18 05:26:29;;;;;;;10.18;7.25;;;;;;;19.66;100.00;98501.88;2586624;28;20080;-88
2023/08/18 05:27:45;;;;;;;10.10;7.63;;;;;;;19.55;100.00;98496.41;2595797;28;20391;-88
2023/08/18 05:29:00;;;;;;;12.32;7.55;;;;;;;19.83;100.00;98506.06;2593906;28;20416;-88
2023/08/18 05:30:16;;;;;;;9.73;6.90;;;;;;;19.72;100.00;98493.50;2593912;28;20049;-87
2023/08/18 05:31:32;;;;;;;10.70;8.18;;;;;;;19.88;100.00;98492.50;2593295;28;20418;-87
2023/08/18 05:32:47;;;;;;;10.00;7.97;;;;;;;20.03;100.00;98490.69;2595521;28;20048;-87
2023/08/18 05:34:04;;;;;;;9.43;7.15;;;;;;;20.08;100.00;98495.69;2594747;28;20053;-88
2023/08/18 05:35:19;;;;;;;8.85;7.50;;;;;;;20.01;100.00;98495.25;2597540;28;20045;-87
2023/08/18 05:36:36;;;;;;;9.60;7.65;;;;;;;20.10;100.00;98491.13;2595776;28;20106;-87
2023/08/18 05:37:52;;;;;;;9.95;7.55;;;;;;;20.23;100.00;98493.78;2593096;28;20052;-87
2023/08/18 05:39:07;;;;;;;10.02;7.65;;;;;;;20.22;100.00;98486.78;2594717;28;20064;-88
2023/08/18 05:40:22;;;;;;;14.40;7.43;;;;;;;20.30;100.00;98487.13;2594269;28;20120;-88
2023/08/18 05:41:38;;;;;;;9.18;7.75;;;;;;;20.38;100.00;98492.75;2595743;28;20069;-87
2023/08/18 05:42:54;;;;;;;11.20;8.07;;;;;;;20.35;100.00;98492.97;2580726;28;20046;-88
2023/08/18 05:44:09;;;;;;;10.07;7.80;;;;;;;20.49;100.00;98492.06;2584767;28;20054;-87
2023/08/18 05:45:25;;;;;;;12.02;8.07;;;;;;;20.59;100.00;98493.09;2592570;28;20627;-87
2023/08/18 05:46:41;;;;;;;13.40;9.27;;;;;;;20.70;100.00;98495.03;2594365;28;20136;-87
2023/08/18 05:47:58;;;;;;;13.23;8.95;;;;;;;20.82;100.00;98495.19;2594017;28;20596;-88
2023/08/18 05:49:13;;;;;;;12.00;8.25;;;;;;;20.69;100.00;98501.31;2594696;28;20057;-87
2023/08/18 05:50:29;;;;;;;14.25;8.57;;;;;;;20.86;100.00;98502.00;2595488;28;20049;-88
2023/08/18 05:51:44;;;;;;;16.63;8.02;;;;;;;20.84;100.00;98503.91;2595407;28;20044;-87
2023/08/18 05:53:04;;;;;;;9.75;7.07;;;;;;;20.73;100.00;98497.50;2594098;28;20053;-87
2023/08/18 05:54:19;;;;;;;11.20;7.50;;;;;;;20.72;100.00;98501.09;2593664;28;20042;-88
2023/08/18 05:55:35;;;;;;;11.93;8.32;;;;;;;20.84;100.00;98499.44;2593083;28;20955;-87